Latest Weather Observations for Warburton

IDW60801

Issued at 7:35 pm WST Monday 20 October 2014 (issued every 30 minutes, with the page automatically refreshed every 10 minutes)

About weather observations | Map of weather stations | Latest weather observations for WA | Other Formats
Station Details ID: 013011 Name: WARBURTON AIRFIELD Lat: -26.13 Lon: 126.58 Height: 459.0 m
Data from the previous 72 hours. | See also: Recent months at Warburton
Date/Time
WST
Temp
°C
App
Temp
°C
Dew
Point
Rel
Hum
%
Delta-T
°C
Wind Press
QNH
hPa
Press
MSL
hPa
Rain
since 9 am
mm
Dir
 
Spd
km/h
Gust
km/h
Spd
kts
Gust
kts
20/07:30pm 29.4 26.8 6.1 23 12.6 WSW 9 11 5 6 1015.8 - 1.0
20/07:00pm 30.3 27.4 4.9 20 13.5 WSW 9 11 5 6 1015.5 - 1.0
20/06:30pm 31.3 28.1 4.9 19 14.1 WSW 11 15 6 8 1015.2 - 1.0
20/06:00pm 32.6 28.5 4.4 17 15.0 W 15 20 8 11 1014.6 1012.1 1.0
20/05:30pm 33.8 28.8 3.6 15 16.0 W 19 28 10 15 1014.0 - 1.0
20/05:00pm 34.6 29.5 4.2 15 16.3 WNW 20 28 11 15 1013.6 - 1.0
20/04:30pm 35.1 29.3 4.6 15 16.5 W 24 33 13 18 1013.2 - 1.0
20/04:00pm 35.2 29.3 5.6 16 16.3 W 26 41 14 22 1012.9 - 0.8
20/03:30pm 34.8 29.9 8.5 20 15.1 WNW 24 37 13 20 1012.8 - 0.8
20/03:00pm 34.5 34.0 12.8 27 13.3 S 7 20 4 11 1012.8 1010.3 0.8
20/02:30pm 35.1 29.5 5.5 16 16.3 WNW 24 32 13 17 1013.0 - 0.0
20/02:00pm 35.5 29.6 5.8 16 16.5 WNW 26 37 14 20 1013.2 - 0.0
20/01:44pm 36.2 30.1 6.4 16 16.7 WNW 28 48 15 26 1013.3 - 0.0
20/01:30pm 35.4 30.3 5.8 16 16.4 WNW 22 39 12 21 1013.5 - 0.0
20/01:00pm 36.7 32.9 5.9 15 17.2 WNW 15 32 8 17 1013.8 - 0.0
20/12:30pm 36.5 31.0 5.7 15 17.1 WNW 24 35 13 19 1014.4 - 0.0
20/12:00pm 36.7 32.2 5.9 15 17.2 NW 19 35 10 19 1015.0 1012.5 0.0
20/11:30am 35.4 30.8 5.8 16 16.4 NNW 19 35 10 19 1015.4 - 0.0
20/11:00am 34.4 31.0 7.5 19 15.2 NNW 15 30 8 16 1015.9 - 0.0
20/10:30am 34.3 30.3 8.1 20 15.0 N 19 24 10 13 1016.4 - 0.0
20/10:00am 32.6 30.2 10.0 25 13.2 NNE 13 24 7 13 1017.1 - 0.0
20/09:30am 30.5 28.2 10.5 29 11.6 NW 13 24 7 13 1017.5 - 0.0
20/09:00am 30.4 28.6 10.9 30 11.4 NNE 11 20 6 11 1017.6 1015.1 0.0
20/08:30am 29.0 27.2 12.0 35 10.1 ENE 13 19 7 10 1017.7 - 0.0
20/08:00am 27.8 26.5 12.6 39 9.0 NE 11 17 6 9 1017.6 - 0.0
20/07:30am 26.3 25.1 12.7 43 8.1 ENE 11 15 6 8 1017.6 - 0.0
20/07:00am 24.6 24.4 13.5 50 6.6 E 7 11 4 6 1017.3 - 0.0
20/06:30am 22.5 21.6 12.7 54 5.7 SSE 9 13 5 7 1017.0 - 0.0
20/06:00am 21.1 20.1 13.5 62 4.5 SSW 11 13 6 7 1016.5 1014.1 0.0
20/05:30am 21.0 19.8 12.7 59 4.8 S 11 15 6 8 1015.9 - 0.0
20/05:00am 21.5 19.8 12.6 57 5.2 SSW 13 17 7 9 1015.7 - 0.0
20/04:30am 22.3 21.2 13.1 56 5.4 SE 11 17 6 9 1015.0 - 0.0
20/04:00am 22.2 19.5 13.5 57 5.1 E 20 30 11 16 1015.1 - 0.0
20/03:30am 21.3 19.5 15.4 69 3.6 E 19 24 10 13 1016.0 - 0.0
20/03:00am 21.6 18.5 13.5 60 4.8 ENE 22 28 12 15 1016.6 1014.2 0.0
20/02:30am 21.8 22.0 14.2 62 4.5 SW 6 20 3 11 1016.4 - 0.0
20/02:00am 21.5 20.4 14.2 63 4.3 S 13 20 7 11 1015.3 - 0.0
20/01:30am 21.2 18.8 13.9 63 4.3 S 19 24 10 13 1015.2 - 0.0
20/01:00am 21.6 19.2 13.8 61 4.6 SSW 19 28 10 15 1014.6 - 0.0
20/12:30am 23.0 20.1 12.9 53 5.9 SSW 20 28 11 15 1014.4 - 0.0
20/12:00am 24.1 19.8 12.1 47 7.0 SSW 26 33 14 18 1014.3 1011.9 0.0
 
Date/Time
WST
Temp
°C
App
Temp
°C
Dew
Point
Rel
Hum
%
Delta-T
°C
Wind Press
QNH
hPa
Press
MSL
hPa
Rain
since 9 am
mm
Dir
 
Spd
km/h
Gust
km/h
Spd
kts
Gust
kts
19/11:30pm 26.6 21.9 7.6 30 10.4 SW 22 30 12 16 1014.2 - 0.0
19/11:00pm 26.6 23.7 2.5 21 12.0 N 7 9 4 5 1013.9 - 0.0
19/10:30pm 26.5 22.8 2.4 21 12.0 N 11 13 6 7 1013.9 - 0.0
19/10:00pm 26.9 23.2 2.1 20 12.3 N 11 11 6 6 1014.0 - 0.0
19/09:30pm 27.6 24.3 0.4 17 13.1 N 7 9 4 5 1014.2 - 0.0
19/09:00pm 29.1 26.2 1.6 17 13.7 N 6 7 3 4 1014.3 1011.9 0.0
19/08:30pm 30.2 27.3 1.6 16 14.4 NW 6 7 3 4 1014.2 - 0.0
19/08:00pm 31.2 27.7 1.5 15 15.0 NNW 9 13 5 7 1013.9 - 0.0
19/07:30pm 31.8 27.9 1.0 14 15.5 NNW 11 13 6 7 1013.4 - 0.0
19/07:00pm 33.2 27.4 -1.2 11 16.8 NNW 19 26 10 14 1013.1 - 0.0
19/06:44pm 33.4 24.6 -1.0 11 16.9 N 35 61 19 33 1013.0 - 0.0
19/06:42pm 33.4 23.9 -1.0 11 16.9 N 39 61 21 33 1013.0 - 0.0
19/06:30pm 33.4 23.9 -1.0 11 16.9 NNW 39 61 21 33 1012.7 - 0.0
19/06:13pm 33.0 22.6 2.0 14 15.9 NNW 46 65 25 35 1012.6 - 0.0
19/06:12pm 33.2 22.4 2.1 14 16.0 NNW 48 65 26 35 1012.5 - 0.0
19/06:00pm 34.1 27.5 -3.2 9 17.8 N 22 30 12 16 1012.1 1009.7 0.0
19/05:30pm 34.6 26.2 -6.2 7 18.6 N 30 41 16 22 1011.8 - 0.0
19/05:00pm 35.5 26.9 -7.5 6 19.3 N 30 46 16 25 1011.5 - 0.0
19/04:30pm 36.1 28.0 -7.1 6 19.6 NNW 28 37 15 20 1011.4 - 0.0
19/04:00pm 36.6 28.1 -6.8 6 19.8 NNW 30 48 16 26 1011.4 - 0.0
19/03:59pm 36.6 28.1 -6.8 6 19.8 NNW 30 48 16 26 1011.4 - 0.0
19/03:30pm 35.6 26.1 -7.5 6 19.3 N 35 48 19 26 1011.5 - 0.0
19/03:00pm 36.1 27.2 -7.1 6 19.6 N 32 50 17 27 1011.6 1009.1 0.0
19/02:31pm 36.7 27.5 -9.0 5 20.2 N 33 59 18 32 1011.8 - 0.0
19/02:30pm 37.4 28.2 -8.5 5 20.6 N 33 50 18 27 1011.8 - 0.0
19/02:00pm 37.5 28.9 -8.5 5 20.6 N 30 48 16 26 1012.0 - 0.0
19/01:34pm 36.3 27.4 -7.0 6 19.7 N 32 50 17 27 1012.5 - 0.0
19/01:30pm 37.7 28.7 -8.3 5 20.7 NNW 32 48 17 26 1012.6 - 0.0
19/01:00pm 37.3 28.4 -11.4 4 20.8 N 30 57 16 31 1012.9 - 0.0
19/12:30pm 37.7 27.5 -11.1 4 21.0 N 37 59 20 32 1013.4 - 0.0
19/12:00pm 35.9 24.9 -12.4 4 20.1 NNW 41 59 22 32 1013.7 1011.2 0.0
19/11:46am 36.7 26.1 -11.8 4 20.5 N 39 57 21 31 1014.0 - 0.0
19/11:30am 36.3 25.3 -12.1 4 20.3 N 41 54 22 29 1014.3 - 0.0
19/11:00am 35.5 24.5 -12.6 4 19.9 N 41 59 22 32 1014.8 - 0.0
19/10:30am 35.6 25.0 -12.6 4 19.9 N 39 59 21 32 1015.2 - 0.0
19/10:22am 35.1 25.4 -10.1 5 19.4 N 35 56 19 30 1015.4 - 0.0
19/10:00am 33.8 27.1 -11.0 5 18.7 N 19 35 10 19 1015.7 - 0.0
19/09:30am 32.7 25.7 -11.8 5 18.2 NNW 20 32 11 17 1016.2 - 0.0
19/09:00am 32.1 25.1 -12.2 5 17.9 NNW 20 32 11 17 1016.4 1014.0 0.0
19/08:30am 30.7 23.6 -13.2 5 17.2 NW 20 33 11 18 1016.6 - 0.0
19/08:00am 29.7 22.3 -11.7 6 16.5 WNW 22 30 12 16 1016.6 - 0.0
19/07:30am 27.9 20.8 -12.9 6 15.6 W 20 33 11 18 1016.4 - 0.0
19/07:00am 28.7 22.6 -12.4 6 16.0 NNW 15 24 8 13 1015.8 - 0.0
19/06:30am 27.0 19.9 -13.6 6 15.2 N 20 32 11 17 1014.8 - 0.0
19/06:00am 25.4 18.3 -12.9 7 14.3 N 20 28 11 15 1014.4 1012.0 0.0
19/05:30am 24.2 17.1 -13.7 7 13.7 N 20 28 11 15 1014.1 - 0.0
19/05:00am 22.9 15.9 -14.7 7 13.2 N 19 24 10 13 1013.9 - 0.0
19/04:30am 23.0 16.4 -14.6 7 13.2 N 17 24 9 13 1013.7 - 0.0
19/04:00am 23.2 16.2 -14.5 7 13.3 NNE 19 26 10 14 1013.5 - 0.0
19/03:30am 22.9 15.9 -14.7 7 13.2 NNE 19 26 10 14 1013.4 - 0.0
19/03:00am 23.1 16.9 -14.5 7 13.2 NNE 15 22 8 12 1013.4 1010.9 0.0
19/02:30am 23.6 17.0 -14.2 7 13.5 NNE 17 24 9 13 1013.3 - 0.0
19/02:00am 23.9 17.4 -14.0 7 13.6 N 17 26 9 14 1013.5 - 0.0
19/01:30am 24.6 17.7 -13.4 7 13.9 N 19 24 10 13 1013.6 - 0.0
19/01:00am 25.4 18.2 -14.7 6 14.5 N 20 28 11 15 1013.8 - 0.0
19/12:30am 25.7 18.7 -14.5 6 14.6 NNE 19 26 10 14 1014.0 - 0.0
19/12:00am 25.5 18.9 -14.7 6 14.5 NNE 17 22 9 12 1014.2 1011.8 0.0
 
Date/Time
WST
Temp
°C
App
Temp
°C
Dew
Point
Rel
Hum
%
Delta-T
°C
Wind Press
QNH
hPa
Press
MSL
hPa
Rain
since 9 am
mm
Dir
 
Spd
km/h
Gust
km/h
Spd
kts
Gust
kts
18/11:30pm 23.8 18.0 -14.0 7 13.5 NE 13 17 7 9 1014.6 - 0.0
18/11:00pm 23.3 17.5 -14.4 7 13.3 NNE 13 17 7 9 1014.8 - 0.0
18/10:30pm 23.5 17.3 -14.2 7 13.4 NE 15 17 8 9 1014.8 - 0.0
18/10:00pm 23.3 17.9 -14.4 7 13.3 NE 11 13 6 7 1015.0 - 0.0
18/09:30pm 24.3 18.5 -13.7 7 13.8 NE 13 17 7 9 1015.1 - 0.0
18/09:00pm 25.8 20.0 -14.5 6 14.6 NNE 13 17 7 9 1015.2 1012.7 0.0
18/08:30pm 27.0 20.9 -13.6 6 15.2 NNE 15 19 8 10 1015.1 - 0.0
18/08:00pm 25.6 20.2 -14.6 6 14.5 NNE 11 13 6 7 1014.9 - 0.0
18/07:30pm 26.9 21.5 -13.7 6 15.1 N 11 13 6 7 1014.9 - 0.0
18/07:00pm 28.2 22.7 -15.0 5 16.0 N 11 13 6 7 1014.6 - 0.0
18/06:30pm 30.2 24.8 -13.6 5 16.9 NNE 11 17 6 9 1014.2 - 0.0
18/06:00pm 31.0 25.7 -13.0 5 17.3 N 11 17 6 9 1013.9 1011.4 0.0
18/05:30pm 34.0 27.1 -13.7 4 19.1 N 19 28 10 15 1013.6 - 0.0
18/05:00pm 34.8 26.6 -13.1 4 19.5 NNW 26 35 14 19 1013.5 - 0.0
18/04:30pm 35.4 28.0 -12.7 4 19.8 NNW 22 30 12 16 1013.3 - 0.0
18/04:00pm 35.9 28.1 -12.4 4 20.1 N 24 39 13 21 1013.0 - 0.0
18/03:30pm 36.5 28.5 -15.5 3 20.7 N 24 37 13 20 1013.0 - 0.0
18/03:00pm 36.1 29.5 -15.7 3 20.5 N 17 32 9 17 1013.1 1010.6 0.0
18/02:30pm 35.6 28.6 -12.6 4 19.9 N 20 33 11 18 1013.4 - 0.0
18/02:00pm 36.9 31.6 -11.7 4 20.6 WNW 11 37 6 20 1013.8 - 0.0
18/01:30pm 35.8 30.5 -12.4 4 20.0 NNW 11 33 6 18 1014.2 - 0.0
18/01:00pm 35.4 28.4 -12.7 4 19.8 NW 20 30 11 16 1014.7 - 0.0
18/12:30pm 35.6 27.8 -12.6 4 19.9 N 24 35 13 19 1015.2 - 0.0
18/12:00pm 35.9 28.5 -12.4 4 20.1 N 22 41 12 22 1015.6 1013.1 0.0
18/11:30am 34.7 27.4 -10.4 5 19.2 NNE 22 39 12 21 1016.1 - 0.0
18/11:00am 33.6 26.3 -11.2 5 18.6 NNW 22 33 12 18 1016.9 - 0.0
18/10:30am 33.7 25.2 -11.1 5 18.7 NNW 28 48 15 26 1017.3 - 0.0
18/10:29am 33.5 25.0 -11.2 5 18.6 NNW 28 48 15 26 1017.2 - 0.0
18/10:00am 33.7 26.0 -11.1 5 18.7 NNW 24 39 13 21 1017.8 - 0.0
18/09:30am 31.9 26.1 -8.1 7 17.3 NW 15 20 8 11 1018.0 - 0.0
18/09:00am 31.3 25.1 -8.6 7 16.9 NW 17 28 9 15 1018.3 1015.9 0.0
18/08:30am 30.5 24.8 -7.4 8 16.3 NW 15 22 8 12 1018.5 - 0.0
18/08:00am 28.6 23.5 -8.8 8 15.5 NNW 11 17 6 9 1018.7 - 0.0
18/07:30am 27.0 22.4 -8.5 9 14.6 N 9 13 5 7 1018.9 - 0.0
18/07:00am 25.9 20.4 -9.4 9 14.1 NNE 13 17 7 9 1018.9 - 0.0
18/06:30am 23.6 19.0 -4.5 15 12.0 NNE 11 15 6 8 1018.5 - 0.0
18/06:00am 18.7 15.5 0.8 30 8.1 N 7 9 4 5 1018.3 1015.9 0.0
18/05:30am 14.8 11.3 -1.7 32 6.9 NNW 7 9 4 5 1017.8 - 0.0
18/05:00am 14.0 11.3 -2.4 32 6.7 NNW 2 7 1 4 1017.4 - 0.0
18/04:30am 14.2 11.9 -2.2 32 6.7 CALM 0 0 0 0 1017.1 - 0.0
18/04:00am 15.0 12.1 -1.1 33 6.8 NE 4 6 2 3 1016.5 - 0.0
18/03:30am 15.8 12.7 0.0 34 6.9 ENE 6 9 3 5 1016.3 - 0.0
18/03:00am 16.6 14.4 1.1 35 7.0 E 2 7 1 4 1016.2 1013.8 0.0
18/02:30am 19.8 17.4 2.2 31 8.3 E 4 7 2 4 1016.1 - 0.0
18/02:00am 21.8 18.4 3.9 31 8.9 E 11 13 6 7 1015.9 - 0.0
18/01:30am 22.8 19.1 6.1 34 8.7 E 15 20 8 11 1016.0 - 0.0
18/01:00am 22.2 17.3 4.3 31 9.0 E 19 20 10 11 1015.9 - 0.0
18/12:30am 17.0 13.3 -3.1 25 8.3 SE 7 9 4 5 1016.0 - 0.0
18/12:00am 17.8 15.3 -3.6 23 8.8 CALM 0 0 0 0 1016.2 1013.8 0.0
 
Date/Time
WST
Temp
°C
App
Temp
°C
Dew
Point
Rel
Hum
%
Delta-T
°C
Wind Press
QNH
hPa
Press
MSL
hPa
Rain
since 9 am
mm
Dir
 
Spd
km/h
Gust
km/h
Spd
kts
Gust
kts
17/11:30pm 18.3 14.6 -2.6 24 8.8 NNE 7 9 4 5 1016.3 - 0.0
17/11:00pm 19.2 16.4 -3.6 21 9.5 NE 2 9 1 5 1016.7 - 0.0
17/10:30pm 21.3 19.3 -0.1 24 9.8 CALM 0 0 0 0 1017.1 - 0.0
17/10:00pm 23.5 20.6 -1.4 19 11.3 WSW 4 9 2 5 1016.9 - 0.0
17/09:30pm 25.0 19.2 -8.7 10 13.5 WSW 15 20 8 11 1016.9 - 0.0
17/09:00pm 23.9 18.8 -9.5 10 13.0 NNE 11 13 6 7 1016.6 1014.2 0.0
17/08:30pm 25.3 20.2 -9.8 9 13.8 NE 11 13 6 7 1016.7 - 0.0
17/08:00pm 25.8 21.5 -9.4 9 14.0 NNE 7 9 4 5 1016.6 - 0.0

Other Formats:

Comma delimited format used in spreadsheet applications
http://www.bom.gov.au/fwo/IDW60801/IDW60801.94457.axf

JavaScript Object Notation format (JSON) in row-major order
http://www.bom.gov.au/fwo/IDW60801/IDW60801.94457.json